Time;durP1;ratioP1;P1;durP2;ratioP2;P2;SDS_P1;SDS_P2;PMS_P1;PMS_P2;Temp;Humidity;BMP_temperature;BMP_pressure;BME280_temperature;BME280_humidity;BME280_pressure;Samples;Min_cycle;Max_cycle;Signal;HPM_P1;HPM_P2
2022/09/06 00:00:23;;;;;;;1.05;0.90;;;;;;;19.99;nan;100509.28;5068321;28;20101;-84
2022/09/06 00:02:48;;;;;;;1.38;1.00;;;;;;;19.96;nan;100511.59;5059366;28;20029;-83
2022/09/06 00:05:14;;;;;;;1.20;0.90;;;;;;;19.91;nan;100505.00;5079211;28;20045;-84
2022/09/06 00:07:39;;;;;;;1.40;1.10;;;;;;;19.90;nan;100502.50;5085154;28;20297;-84
2022/09/06 00:10:06;;;;;;;2.55;1.13;;;;;;;19.87;nan;100502.94;5080214;28;20032;-84
2022/09/06 00:12:31;;;;;;;1.52;1.25;;;;;;;19.84;nan;100504.19;5075308;28;20032;-84
2022/09/06 00:14:57;;;;;;;2.15;1.40;;;;;;;19.80;nan;100507.53;5079876;28;20119;-84
2022/09/06 00:17:23;;;;;;;1.90;1.30;;;;;;;19.79;nan;100505.91;5067194;28;20055;-84
2022/09/06 00:19:49;;;;;;;2.30;1.33;;;;;;;19.75;nan;100512.72;5066749;28;20036;-84
2022/09/06 00:22:14;;;;;;;2.40;1.55;;;;;;;19.75;nan;100505.47;5063564;28;20052;-84
2022/09/06 00:24:39;;;;;;;1.85;1.42;;;;;;;19.76;nan;100506.28;5075295;28;20432;-83
2022/09/06 00:27:06;;;;;;;2.00;1.20;;;;;;;19.75;nan;100505.47;5065676;28;20036;-83
2022/09/06 00:29:32;;;;;;;1.65;1.20;;;;;;;19.76;nan;100500.94;5078903;28;20121;-84
2022/09/06 00:31:58;;;;;;;1.70;1.13;;;;;;;19.78;nan;100505.03;5072604;28;20036;-83
2022/09/06 00:34:23;;;;;;;1.58;1.00;;;;;;;19.78;nan;100496.19;5069330;28;20437;-84
2022/09/06 00:36:49;;;;;;;1.52;0.98;;;;;;;19.79;nan;100503.22;5069975;28;20028;-84
2022/09/06 00:39:14;;;;;;;1.40;0.90;;;;;;;19.74;nan;100501.16;5074019;28;20032;-84
2022/09/06 00:41:39;;;;;;;1.77;1.20;;;;;;;19.69;nan;100504.47;5077860;28;20037;-84
2022/09/06 00:44:05;;;;;;;1.67;1.20;;;;;;;19.65;nan;100502.41;5080256;28;20036;-83
2022/09/06 00:46:31;;;;;;;1.88;1.20;;;;;;;19.62;nan;100494.78;5078150;28;20028;-84
2022/09/06 00:49:05;;;;;;;1.63;1.20;;;;;;;19.60;nan;100494.16;5074984;28;20048;-84
2022/09/06 00:51:33;;;;;;;2.00;1.20;;;;;;;19.60;nan;100480.75;5075770;28;20036;-84
2022/09/06 00:54:02;;;;;;;1.70;1.20;;;;;;;19.62;nan;100492.91;5078718;28;20081;-85
2022/09/06 00:56:30;;;;;;;1.80;1.30;;;;;;;19.65;nan;100484.44;5068441;28;20040;-85
2022/09/06 00:58:55;;;;;;;1.38;1.20;;;;;;;19.67;nan;100482.38;5069044;28;20031;-84
2022/09/06 01:01:20;;;;;;;3.35;1.10;;;;;;;19.72;nan;100487.13;5060248;28;20044;-84
2022/09/06 01:03:46;;;;;;;1.70;1.25;;;;;;;19.71;nan;100486.31;5081369;28;20044;-84
2022/09/06 01:07:02;;;;;;;1.75;1.30;;;;;;;19.67;nan;100492.28;5087948;28;20482;-84
2022/09/06 01:09:46;;;;;;;1.75;1.10;;;;;;;19.64;nan;100496.22;4983243;28;20125;-84
2022/09/06 01:12:25;;;;;;;1.27;0.98;;;;;;;19.62;nan;100500.97;5065080;28;20047;-84
2022/09/06 01:15:27;;;;;;;3.13;1.30;;;;;;;19.56;nan;100501.81;5081523;28;20028;-84
2022/09/06 01:18:21;;;;;;;1.30;1.00;;;;;;;19.53;nan;100507.59;5068543;28;20040;-83
2022/09/06 01:21:21;;;;;;;1.40;1.00;;;;;;;19.47;nan;100503.91;5061769;28;20563;-84
2022/09/06 01:24:11;;;;;;;1.45;1.10;;;;;;;19.43;nan;100510.72;5080628;28;20047;-84
2022/09/06 01:27:11;;;;;;;2.58;1.30;;;;;;;19.43;nan;100515.25;5069847;28;20676;-85
2022/09/06 01:29:54;;;;;;;1.45;1.00;;;;;;;19.43;nan;100520.63;5084475;28;20094;-85
2022/09/06 01:32:33;;;;;;;1.55;1.15;;;;;;;19.42;nan;100535.06;5071417;28;20036;-84
2022/09/06 01:35:09;;;;;;;1.65;1.17;;;;;;;19.43;nan;100550.13;5060410;28;20044;-84
2022/09/06 01:37:35;;;;;;;1.30;1.00;;;;;;;19.42;nan;100583.31;5073502;28;20097;-86
2022/09/06 01:40:00;;;;;;;2.10;1.50;;;;;;;19.37;nan;100659.03;5081683;28;20430;-85
2022/09/06 01:42:30;;;;;;;3.17;1.90;;;;;;;19.38;nan;100683.97;5070796;28;20044;-86
2022/09/06 01:45:00;;;;;;;3.17;2.00;;;;;;;19.51;nan;100678.63;5088834;28;20062;-86
2022/09/06 01:47:34;;;;;;;2.45;1.80;;;;;;;19.59;nan;100675.72;5081812;28;20040;-85
2022/09/06 01:50:17;;;;;;;3.55;2.20;;;;;;;19.66;nan;100673.03;5062689;28;20122;-85
2022/09/06 01:53:02;;;;;;;2.72;2.13;;;;;;;19.75;nan;100687.94;5064786;28;20044;-84
2022/09/06 01:55:59;;;;;;;4.13;2.63;;;;;;;19.83;nan;100689.56;5083774;28;20064;-87
2022/09/06 01:58:48;;;;;;;4.15;2.40;;;;;;;19.92;nan;100685.63;5090110;28;20098;-86
2022/09/06 02:01:32;;;;;;;4.63;2.40;;;;;;;20.02;nan;100687.88;5066039;28;20029;-86
2022/09/06 02:04:07;;;;;;;5.10;2.55;;;;;;;20.06;nan;100697.16;5064855;28;20035;-84
2022/09/06 02:06:41;;;;;;;3.78;2.30;;;;;;;20.05;nan;100698.22;5077354;28;20063;-85
2022/09/06 02:09:10;;;;;;;5.25;2.65;;;;;;;20.06;nan;100703.34;5064304;28;20115;-83
2022/09/06 02:12:00;;;;;;;3.17;2.25;;;;;;;20.07;nan;100691.59;5087571;28;20037;-84
2022/09/06 02:14:38;;;;;;;3.95;1.95;;;;;;;20.09;nan;100672.56;5061199;28;20510;-84
2022/09/06 02:17:05;;;;;;;3.65;2.35;;;;;;;20.09;nan;100654.63;5066985;28;20028;-83
2022/09/06 02:19:43;;;;;;;5.95;2.50;;;;;;;20.10;nan;100645.53;5077675;28;20553;-85
2022/09/06 02:22:12;;;;;;;3.65;2.42;;;;;;;20.11;nan;100617.63;5072675;28;20077;-84
2022/09/06 02:24:39;;;;;;;3.28;2.67;;;;;;;20.13;nan;100618.25;5078329;28;20067;-83
2022/09/06 02:27:05;;;;;;;4.18;2.80;;;;;;;20.17;nan;100628.59;5082176;28;20039;-83
2022/09/06 02:29:32;;;;;;;3.40;2.50;;;;;;;20.17;nan;100618.66;5077117;28;20072;-83
2022/09/06 02:32:05;;;;;;;3.58;2.30;;;;;;;20.19;nan;100603.19;5087290;28;20028;-83
2022/09/06 02:34:31;;;;;;;3.45;2.10;;;;;;;20.17;nan;100610.63;5082196;28;20041;-83
2022/09/06 02:36:56;;;;;;;3.10;2.03;;;;;;;20.17;nan;100617.84;5082835;28;20036;-83
2022/09/06 02:39:23;;;;;;;3.08;2.00;;;;;;;20.15;nan;100624.25;5059763;28;20028;-83
2022/09/06 02:41:49;;;;;;;2.28;1.77;;;;;;;20.15;nan;100632.28;5085799;28;20032;-83
2022/09/06 02:44:15;;;;;;;4.35;2.17;;;;;;;20.18;nan;100641.78;5067525;28;20453;-83
2022/09/06 02:46:40;;;;;;;2.33;1.80;;;;;;;20.23;nan;100657.25;5091711;28;20046;-84
2022/09/06 02:49:05;;;;;;;2.47;1.83;;;;;;;20.25;nan;100677.50;5074210;28;20067;-84
2022/09/06 02:51:37;;;;;;;2.15;1.45;;;;;;;20.27;nan;100696.09;5090889;28;20032;-84
2022/09/06 02:54:02;;;;;;;2.13;1.38;;;;;;;20.27;nan;100690.72;5068190;28;20028;-84
2022/09/06 02:56:27;;;;;;;2.38;1.75;;;;;;;20.28;nan;100674.38;5074797;28;20521;-83
2022/09/06 02:58:53;;;;;;;2.08;1.50;;;;;;;20.29;nan;100667.97;5064403;28;20036;-84
2022/09/06 03:01:18;;;;;;;3.13;1.70;;;;;;;20.27;nan;100655.81;5082139;28;20040;-84
2022/09/06 03:03:43;;;;;;;4.63;2.45;;;;;;;20.24;nan;100645.50;5075705;28;20059;-84
2022/09/06 03:06:09;;;;;;;3.35;2.70;;;;;;;20.07;nan;100627.19;5087886;28;20074;-83
2022/09/06 03:08:35;;;;;;;5.05;2.85;;;;;;;20.09;nan;100609.00;5088137;28;20028;-84
2022/09/06 03:11:01;;;;;;;4.18;2.63;;;;;;;20.19;nan;100613.91;5071832;28;20111;-83
2022/09/06 03:13:27;;;;;;;3.53;2.28;;;;;;;20.23;nan;100625.84;5074592;28;20039;-83
2022/09/06 03:15:57;;;;;;;3.13;2.08;;;;;;;20.20;nan;100628.97;5067224;28;20058;-84
2022/09/06 03:18:23;;;;;;;2.93;2.10;;;;;;;20.05;nan;100639.16;5082769;28;20034;-85
2022/09/06 03:20:50;;;;;;;3.22;2.17;;;;;;;20.04;nan;100632.13;5093526;28;20039;-84
2022/09/06 03:23:17;;;;;;;3.10;2.10;;;;;;;20.09;nan;100622.41;5077928;28;20115;-85
2022/09/06 03:25:43;;;;;;;5.38;2.72;;;;;;;20.20;nan;100601.31;5075495;28;20111;-85
2022/09/06 03:28:09;;;;;;;4.07;2.60;;;;;;;19.80;nan;100588.84;5064147;28;20032;-83
2022/09/06 03:30:35;;;;;;;3.72;2.10;;;;;;;19.22;nan;100578.00;5075035;28;20040;-84
2022/09/06 03:33:00;;;;;;;3.50;2.40;;;;;;;18.94;nan;100559.44;5070577;28;20036;-85
2022/09/06 03:35:26;;;;;;;3.47;2.15;;;;;;;18.67;nan;100536.09;5077416;28;20036;-85
2022/09/06 03:37:51;;;;;;;3.13;2.20;;;;;;;18.50;nan;100520.66;5070985;28;20029;-84
2022/09/06 03:40:16;;;;;;;5.05;2.15;;;;;;;18.40;nan;100507.63;5095067;28;20052;-85
2022/09/06 03:42:42;;;;;;;5.18;2.00;;;;;;;18.60;nan;100499.63;5078239;28;20037;-84
2022/09/06 03:45:07;;;;;;;3.60;2.03;;;;;;;18.78;nan;100497.22;5080981;28;20036;-83
2022/09/06 03:47:33;;;;;;;2.85;2.15;;;;;;;18.96;nan;100483.16;5066875;28;20819;-83
2022/09/06 03:49:58;;;;;;;3.63;2.10;;;;;;;19.09;nan;100496.56;5082957;28;20754;-83
2022/09/06 03:52:23;;;;;;;2.55;1.70;;;;;;;19.17;nan;100497.38;5069211;28;20051;-85
2022/09/06 03:54:49;;;;;;;3.35;1.90;;;;;;;19.26;nan;100493.44;5076242;28;20090;-84
2022/09/06 03:57:14;;;;;;;2.80;1.85;;;;;;;19.33;nan;100485.38;5082952;28;20041;-84
2022/09/06 03:59:39;;;;;;;3.75;2.03;;;;;;;19.43;nan;100480.41;5067094;28;20044;-83
2022/09/06 04:02:07;;;;;;;3.60;1.83;;;;;;;19.46;nan;100482.66;5076925;28;20526;-85
2022/09/06 04:04:32;;;;;;;2.15;1.67;;;;;;;19.48;nan;100481.41;5081348;28;20036;-83
2022/09/06 04:06:57;;;;;;;2.72;1.90;;;;;;;19.52;nan;100484.47;5082171;28;20450;-83
2022/09/06 04:09:23;;;;;;;3.03;1.85;;;;;;;19.53;nan;100499.56;5063613;28;20591;-84
2022/09/06 04:11:48;;;;;;;2.20;1.50;;;;;;;19.46;nan;100506.78;5078738;28;20040;-83
2022/09/06 04:14:13;;;;;;;3.65;1.60;;;;;;;19.37;nan;100510.72;5092049;28;20506;-84
2022/09/06 04:16:39;;;;;;;1.77;1.40;;;;;;;19.28;nan;100518.16;5085580;28;20036;-84
2022/09/06 04:19:04;;;;;;;2.20;1.60;;;;;;;19.22;nan;100525.19;5090505;28;20050;-85
2022/09/06 04:21:30;;;;;;;2.55;1.58;;;;;;;19.17;nan;100535.72;5073848;28;20040;-85
2022/09/06 04:23:55;;;;;;;3.47;1.80;;;;;;;19.19;nan;100520.25;5081707;28;20614;-83
2022/09/06 04:26:21;;;;;;;4.50;2.35;;;;;;;19.31;nan;100509.72;5079642;28;20044;-84
2022/09/06 04:28:46;;;;;;;2.85;1.88;;;;;;;19.33;nan;100521.06;5088481;28;20090;-83
2022/09/06 04:31:11;;;;;;;2.90;1.70;;;;;;;19.28;nan;100513.66;5060056;28;20511;-84
2022/09/06 04:33:37;;;;;;;2.85;1.70;;;;;;;19.21;nan;100517.34;5088944;28;20068;-84
2022/09/06 04:36:05;;;;;;;2.72;1.80;;;;;;;19.15;nan;100528.94;5082419;28;20022;-83
2022/09/06 04:38:38;;;;;;;3.10;1.90;;;;;;;19.16;nan;100526.00;5083322;28;20040;-83
2022/09/06 04:41:04;;;;;;;2.50;1.95;;;;;;;19.15;nan;100526.25;5079629;28;20025;-84
2022/09/06 04:43:30;;;;;;;2.15;1.60;;;;;;;19.06;nan;100528.31;5078965;28;20048;-84
2022/09/06 04:45:55;;;;;;;3.63;1.90;;;;;;;18.96;nan;100534.09;5074872;28;20590;-84
2022/09/06 04:48:21;;;;;;;2.13;1.50;;;;;;;18.84;nan;100531.19;5073435;28;20244;-83
2022/09/06 04:50:46;;;;;;;1.63;1.27;;;;;;;18.75;nan;100532.41;5068341;28;20063;-84
2022/09/06 04:53:11;;;;;;;2.25;1.60;;;;;;;18.70;nan;100531.38;5066812;28;20058;-83
2022/09/06 04:55:37;;;;;;;3.40;1.80;;;;;;;18.65;nan;100524.78;5091883;28;20043;-83
2022/09/06 04:58:03;;;;;;;3.03;1.65;;;;;;;18.63;nan;100526.81;5088412;28;20032;-83
2022/09/06 05:00:31;;;;;;;5.43;1.85;;;;;;;18.64;nan;100530.34;5086668;28;20040;-83
2022/09/06 05:02:57;;;;;;;2.25;1.80;;;;;;;18.63;nan;100529.50;5090269;28;20058;-83
2022/09/06 05:05:23;;;;;;;3.05;1.50;;;;;;;18.63;nan;100539.41;5082905;28;20040;-82
2022/09/06 05:07:55;;;;;;;2.97;1.70;;;;;;;18.63;nan;100534.03;5085590;28;20415;-82
2022/09/06 05:10:21;;;;;;;2.63;1.75;;;;;;;18.60;nan;100526.41;5082657;28;20534;-83
2022/09/06 05:12:51;;;;;;;2.47;1.70;;;;;;;18.58;nan;100542.69;5063686;28;20045;-83
2022/09/06 05:15:18;;;;;;;2.53;1.87;;;;;;;18.57;nan;100540.22;5076482;28;20032;-83
2022/09/06 05:17:43;;;;;;;5.47;2.00;;;;;;;18.57;nan;100545.59;5070631;28;20039;-85
2022/09/06 05:20:09;;;;;;;3.38;2.20;;;;;;;18.55;nan;100553.81;5072187;28;20032;-83
2022/09/06 05:22:35;;;;;;;3.50;2.40;;;;;;;18.56;nan;100560.00;5094176;28;20127;-83
2022/09/06 05:25:00;;;;;;;4.60;2.50;;;;;;;18.57;nan;100561.66;5073865;28;20444;-84
2022/09/06 05:27:26;;;;;;;4.65;2.83;;;;;;;18.59;nan;100559.56;5095753;28;20040;-83
2022/09/06 05:29:51;;;;;;;3.30;2.50;;;;;;;18.62;nan;100556.50;5084742;28;20040;-83
2022/09/06 05:32:16;;;;;;;4.25;2.50;;;;;;;18.70;nan;100566.19;5065498;28;20071;-85
2022/09/06 05:34:42;;;;;;;3.30;2.50;;;;;;;18.78;nan;100566.88;5084806;28;20559;-84
2022/09/06 05:37:07;;;;;;;4.32;2.30;;;;;;;18.93;nan;100574.69;5074310;28;20055;-85
2022/09/06 05:39:32;;;;;;;3.45;2.60;;;;;;;18.98;nan;100566.03;5082074;28;20086;-83
2022/09/06 05:41:58;;;;;;;4.78;3.00;;;;;;;19.12;nan;100573.06;5085306;28;20040;-84
2022/09/06 05:44:23;;;;;;;4.35;2.78;;;;;;;19.26;nan;100577.38;5075645;28;20051;-82
2022/09/06 05:46:48;;;;;;;3.05;2.33;;;;;;;19.46;nan;100585.38;5063743;28;20044;-84
2022/09/06 05:49:14;;;;;;;2.90;2.30;;;;;;;19.60;nan;100590.75;5087369;28;20418;-82
2022/09/06 05:51:40;;;;;;;3.28;2.50;;;;;;;19.84;nan;100595.44;5072421;28;20032;-83
2022/09/06 05:54:06;;;;;;;3.63;2.80;;;;;;;20.11;nan;100601.53;5074153;28;20024;-83
2022/09/06 05:56:32;;;;;;;3.90;2.72;;;;;;;20.41;nan;100594.81;5070181;28;20032;-83
2022/09/06 05:58:57;;;;;;;4.90;2.70;;;;;;;20.69;nan;100597.97;5068572;28;20050;-85
2022/09/06 06:01:28;;;;;;;3.50;2.92;;;;;;;20.91;nan;100601.13;5073333;28;20042;-83
2022/09/06 06:04:02;;;;;;;6.30;3.10;;;;;;;21.09;nan;100610.28;5073536;28;20028;-84
2022/09/06 06:06:33;;;;;;;4.93;2.78;;;;;;;21.24;nan;100607.25;5070170;28;20040;-83
2022/09/06 06:08:59;;;;;;;4.47;3.10;;;;;;;21.38;nan;100609.63;5069253;28;20033;-84
2022/09/06 06:11:25;;;;;;;4.88;2.72;;;;;;;21.51;nan;100613.28;5058415;28;20047;-84
2022/09/06 06:13:51;;;;;;;3.80;2.60;;;;;;;21.56;nan;100614.25;5067011;28;20059;-84
2022/09/06 06:16:17;;;;;;;4.82;3.15;;;;;;;21.38;nan;100617.69;5064236;28;20058;-84
2022/09/06 06:18:43;;;;;;;3.72;2.83;;;;;;;21.18;nan;100620.53;5073238;28;20048;-83
2022/09/06 06:21:12;;;;;;;6.13;3.20;;;;;;;20.96;nan;100620.09;5089630;28;20044;-82
2022/09/06 06:23:39;;;;;;;5.72;3.08;;;;;;;20.84;nan;100629.09;5065295;28;20032;-82
2022/09/06 06:26:05;;;;;;;5.97;3.17;;;;;;;20.76;nan;100627.47;5069530;28;20115;-83
2022/09/06 06:28:31;;;;;;;4.95;3.28;;;;;;;20.71;nan;100625.47;5080415;28;20032;-83
2022/09/06 06:30:56;;;;;;;4.03;2.60;;;;;;;20.73;nan;100622.53;5074266;28;20051;-83
2022/09/06 06:33:21;;;;;;;3.42;2.60;;;;;;;20.74;nan;100626.88;5081609;28;20051;-83
2022/09/06 06:36:00;;;;;;;3.95;2.75;;;;;;;20.75;nan;100623.16;5084289;28;20397;-83
2022/09/06 06:38:34;;;;;;;2.83;2.47;;;;;;;20.94;nan;100618.69;5072438;28;20039;-83
2022/09/06 06:41:00;;;;;;;3.67;2.47;;;;;;;21.37;nan;100621.41;5096709;28;20039;-84
2022/09/06 06:43:27;;;;;;;3.90;2.97;;;;;;;21.61;nan;100621.66;5099448;28;20043;-83
2022/09/06 06:45:53;;;;;;;3.92;2.95;;;;;;;21.71;nan;100632.72;5070566;28;20044;-83
2022/09/06 06:48:19;;;;;;;3.78;2.78;;;;;;;21.59;nan;100635.31;5086675;28;20249;-83
2022/09/06 06:50:45;;;;;;;4.72;3.25;;;;;;;21.42;nan;100629.69;5079343;28;20044;-83
2022/09/06 06:53:10;;;;;;;5.45;3.42;;;;;;;21.33;nan;100625.63;5084392;28;20100;-85
2022/09/06 06:55:36;;;;;;;5.28;3.35;;;;;;;21.22;nan;100631.72;5073826;28;20036;-84
2022/09/06 06:58:02;;;;;;;5.30;3.30;;;;;;;21.26;nan;100630.22;5073447;28;20495;-84
2022/09/06 07:00:27;;;;;;;4.45;3.40;;;;;;;21.84;nan;100639.84;5082265;28;20063;-84
2022/09/06 07:02:54;;;;;;;3.80;2.70;;;;;;;22.54;nan;100642.13;5084386;28;20314;-84
2022/09/06 07:05:20;;;;;;;3.30;2.20;;;;;;;23.42;nan;100632.50;5097300;28;20204;-83
2022/09/06 07:07:45;;;;;;;3.33;2.30;;;;;;;24.08;nan;100644.00;5079208;28;20028;-83
2022/09/06 07:10:11;;;;;;;2.70;2.10;;;;;;;24.71;nan;100638.75;5071098;28;20096;-83
2022/09/06 07:12:36;;;;;;;3.73;2.33;;;;;;;25.22;nan;100639.66;5079745;28;20041;-83
2022/09/06 07:15:02;;;;;;;4.32;2.72;;;;;;;25.34;nan;100642.28;5083264;28;20297;-83
2022/09/06 07:17:27;;;;;;;4.68;2.65;;;;;;;25.15;nan;100628.97;5098373;28;20036;-84
2022/09/06 07:19:53;;;;;;;3.28;2.50;;;;;;;24.89;nan;100630.41;5085173;28;20047;-83
2022/09/06 07:22:18;;;;;;;3.00;2.35;;;;;;;24.66;nan;100634.06;5076278;28;20088;-84
2022/09/06 07:24:44;;;;;;;3.13;2.30;;;;;;;24.48;nan;100637.78;5071158;28;20048;-84
2022/09/06 07:27:10;;;;;;;3.05;2.10;;;;;;;24.33;nan;100638.28;5086139;28;20275;-84
2022/09/06 07:29:35;;;;;;;3.17;1.95;;;;;;;24.34;nan;100636.41;5078667;28;20043;-83
2022/09/06 07:32:00;;;;;;;3.55;2.80;;;;;;;24.43;nan;100637.69;5091627;28;20040;-83
2022/09/06 07:34:26;;;;;;;3.92;2.00;;;;;;;24.87;nan;100645.25;5088512;28;20391;-85
2022/09/06 07:36:55;;;;;;;4.05;2.00;;;;;;;25.40;nan;100643.97;5079601;28;20398;-84
2022/09/06 07:39:21;;;;;;;3.60;2.55;;;;;;;25.54;nan;100642.56;5105160;28;20243;-83
2022/09/06 07:41:46;;;;;;;4.28;2.58;;;;;;;25.88;nan;100653.38;5106909;28;20031;-84
2022/09/06 07:44:12;;;;;;;3.17;2.30;;;;;;;26.37;nan;100645.31;5101012;28;20063;-85
2022/09/06 07:46:37;;;;;;;3.67;2.45;;;;;;;26.71;nan;100639.72;5078132;28;20110;-85
2022/09/06 07:49:04;;;;;;;3.28;1.98;;;;;;;26.96;nan;100641.03;5065990;28;20121;-85
2022/09/06 07:51:29;;;;;;;3.42;1.50;;;;;;;27.19;nan;100637.16;5093147;28;20043;-85
2022/09/06 07:53:55;;;;;;;3.47;1.92;;;;;;;27.30;nan;100628.84;5100696;28;20126;-84
2022/09/06 07:56:22;;;;;;;3.90;2.83;;;;;;;26.91;nan;100633.69;5082834;28;20063;-85
2022/09/06 07:58:48;;;;;;;4.95;2.65;;;;;;;26.68;nan;100632.09;5084711;28;20487;-85
2022/09/06 08:01:17;;;;;;;4.25;2.10;;;;;;;26.72;nan;100630.53;5068959;28;20041;-84
2022/09/06 08:03:42;;;;;;;3.78;2.50;;;;;;;26.77;nan;100633.28;5071361;28;20036;-85
2022/09/06 08:06:08;;;;;;;3.40;2.22;;;;;;;26.71;nan;100631.59;5071465;28;20097;-85
2022/09/06 08:08:34;;;;;;;3.45;2.30;;;;;;;26.90;nan;100632.84;5072052;28;20029;-85
2022/09/06 08:10:59;;;;;;;4.55;2.67;;;;;;;27.14;nan;100631.69;5096179;28;20043;-85
2022/09/06 08:13:25;;;;;;;2.90;2.15;;;;;;;27.26;nan;100625.03;5085040;28;20047;-85
2022/09/06 08:16:00;;;;;;;2.97;2.08;;;;;;;27.28;nan;100620.16;5088836;28;20037;-84
2022/09/06 08:18:25;;;;;;;5.80;2.20;;;;;;;27.29;nan;100626.38;5070850;28;20032;-85
2022/09/06 08:20:51;;;;;;;4.53;2.55;;;;;;;27.16;nan;100637.69;5084799;28;20036;-84
2022/09/06 08:23:16;;;;;;;2.58;2.00;;;;;;;26.87;nan;100635.28;5079142;28;20036;-85
2022/09/06 08:25:41;;;;;;;3.17;2.13;;;;;;;26.58;nan;100630.13;5083383;28;20051;-84
2022/09/06 08:28:07;;;;;;;2.70;1.80;;;;;;;26.30;nan;100636.56;5095759;28;20065;-85
2022/09/06 08:30:32;;;;;;;4.53;2.50;;;;;;;26.44;nan;100640.50;5080284;28;20524;-85
2022/09/06 08:32:58;;;;;;;3.28;2.40;;;;;;;26.79;nan;100641.16;5068667;28;20039;-85
2022/09/06 08:35:23;;;;;;;4.53;2.53;;;;;;;27.08;nan;100637.06;5071223;28;20495;-85
2022/09/06 08:37:48;;;;;;;2.83;2.10;;;;;;;27.78;nan;100636.22;5082879;28;20503;-84
2022/09/06 08:40:19;;;;;;;5.68;2.92;;;;;;;28.73;nan;100631.41;5083513;28;20101;-85
2022/09/06 08:42:45;;;;;;;;;;;;;;;29.70;nan;100641.50;5070844;28;20048;-85
2022/09/06 08:45:17;;;;;;;4.80;2.80;;;;;;;30.71;nan;100641.28;5089286;28;19959;-84
2022/09/06 08:47:43;;;;;;;4.38;2.60;;;;;;;31.44;nan;100643.19;5076744;28;20052;-84
2022/09/06 08:50:09;;;;;;;3.15;2.30;;;;;;;32.06;nan;100640.59;5088026;28;20119;-85
2022/09/06 08:52:50;;;;;;;2.92;1.73;;;;;;;32.92;nan;100645.97;5083987;28;20040;-85
2022/09/06 08:55:39;;;;;;;3.35;2.17;;;;;;;33.62;nan;100634.06;5075355;28;20511;-85
2022/09/06 08:58:26;;;;;;;4.50;2.90;;;;;;;33.97;nan;100628.97;5089038;28;20039;-85
2022/09/06 09:00:57;;;;;;;3.70;2.08;;;;;;;33.88;nan;100616.28;5090205;28;20035;-85
2022/09/06 09:03:35;;;;;;;2.50;1.77;;;;;;;34.25;nan;100618.81;5095535;28;20066;-86
2022/09/06 09:06:04;;;;;;;3.55;2.20;;;;;;;34.29;nan;100613.50;5087960;28;20039;-86
2022/09/06 09:08:35;;;;;;;2.97;1.73;;;;;;;34.05;nan;100605.50;5092058;28;20038;-85
2022/09/06 09:11:07;;;;;;;1.67;1.23;;;;;;;34.81;nan;100607.63;5069810;28;20040;-85
2022/09/06 09:13:51;;;;;;;2.50;2.15;;;;;;;34.92;nan;100603.50;5078622;28;20111;-85
2022/09/06 09:16:17;;;;;;;4.78;2.55;;;;;;;34.85;nan;100601.19;5082853;28;20028;-85
2022/09/06 09:18:48;;;;;;;3.58;2.13;;;;;;;35.06;nan;100603.41;5088702;28;20039;-85
2022/09/06 09:21:19;;;;;;;4.30;2.10;;;;;;;35.41;nan;100600.88;5083586;28;20042;-85
2022/09/06 09:23:50;;;;;;;;;;;;;;;35.66;nan;100597.44;5075491;28;20032;-86
2022/09/06 09:26:15;;;;;;;3.65;2.00;;;;;;;36.21;nan;100592.50;5069662;28;19920;-86
2022/09/06 09:29:08;;;;;;;2.58;1.52;;;;;;;37.05;nan;100587.59;5091231;28;20035;-85
2022/09/06 09:31:41;;;;;;;3.10;2.03;;;;;;;37.22;nan;100584.81;5072191;28;20094;-86
2022/09/06 09:34:11;;;;;;;4.07;1.95;;;;;;;37.20;nan;100585.13;5071550;28;20035;-85
2022/09/06 09:36:37;;;;;;;2.50;1.75;;;;;;;37.61;nan;100588.38;5070211;28;20041;-85
2022/09/06 09:39:08;;;;;;;3.50;1.30;;;;;;;37.98;nan;100586.69;5087678;28;20044;-85
2022/09/06 09:41:37;;;;;;;2.03;1.30;;;;;;;38.84;nan;100583.53;5094053;28;20043;-85
2022/09/06 09:44:10;;;;;;;3.22;1.55;;;;;;;39.29;nan;100577.97;5089342;28;20081;-86
2022/09/06 09:46:38;;;;;;;5.03;1.63;;;;;;;39.63;nan;100583.44;5062573;28;20079;-85
2022/09/06 09:49:11;;;;;;;2.42;1.63;;;;;;;39.80;nan;100574.88;5076478;28;20089;-85
2022/09/06 09:51:38;;;;;;;2.40;1.40;;;;;;;40.06;nan;100571.72;5075759;28;20054;-85
2022/09/06 09:54:11;;;;;;;4.75;1.83;;;;;;;40.10;nan;100569.84;5084004;28;20062;-86
2022/09/06 09:56:42;;;;;;;3.33;1.25;;;;;;;40.07;nan;100569.75;5067453;28;20032;-85
2022/09/06 09:59:16;;;;;;;4.10;1.63;;;;;;;40.19;nan;100561.41;5084126;28;20055;-86
2022/09/06 10:01:41;;;;;;;2.05;1.45;;;;;;;40.95;nan;100567.88;5062298;28;20028;-85
2022/09/06 10:04:10;;;;;;;2.72;1.63;;;;;;;41.03;nan;100570.84;5077953;28;20479;-86
2022/09/06 10:06:36;;;;;;;3.20;1.50;;;;;;;40.63;nan;100569.78;5068401;28;20045;-86
2022/09/06 10:09:20;;;;;;;2.67;1.83;;;;;;;41.39;nan;100559.47;5059070;28;20033;-86
2022/09/06 10:11:53;;;;;;;3.75;1.42;;;;;;;42.14;nan;100565.09;5080138;28;20037;-85
2022/09/06 10:14:25;;;;;;;;;;;;;;;42.41;nan;100558.53;5076957;28;20039;-86
2022/09/06 10:16:51;;;;;;;2.38;1.50;;;;;;;42.75;nan;100560.75;5067356;28;20391;-86
2022/09/06 10:19:36;;;;;;;3.05;1.27;;;;;;;43.42;nan;100565.88;5068070;28;20431;-85
2022/09/06 10:22:29;;;;;;;1.45;1.02;;;;;;;43.84;nan;100560.13;5082144;28;20392;-84
2022/09/06 10:25:16;;;;;;;3.20;1.58;;;;;;;43.94;nan;100563.44;5079148;28;20059;-86
2022/09/06 10:27:56;;;;;;;3.15;1.40;;;;;;;44.17;nan;100554.97;5075880;28;20064;-86
2022/09/06 10:30:22;;;;;;;2.40;1.30;;;;;;;44.28;nan;100561.47;5081536;28;20452;-87
2022/09/06 10:33:03;;;;;;;2.33;1.20;;;;;;;44.12;nan;100550.53;5080188;28;20450;-87
2022/09/06 10:35:36;;;;;;;2.30;1.40;;;;;;;43.77;nan;100556.47;5080259;28;20437;-86
2022/09/06 10:38:20;;;;;;;2.05;1.27;;;;;;;43.65;nan;100547.16;5083335;28;20474;-86
2022/09/06 10:41:03;;;;;;;2.97;1.00;;;;;;;44.21;nan;100541.88;5075771;28;20391;-87
2022/09/06 10:43:40;;;;;;;1.98;1.30;;;;;;;44.68;nan;100545.97;5076215;28;20769;-86
2022/09/06 10:46:13;;;;;;;1.80;1.10;;;;;;;44.30;nan;100545.16;5066427;28;20408;-87
2022/09/06 10:48:43;;;;;;;3.55;1.50;;;;;;;42.97;nan;100537.69;5088462;28;20716;-85
2022/09/06 10:51:19;;;;;;;2.10;1.10;;;;;;;43.75;nan;100540.09;5088064;28;20402;-85
2022/09/06 10:54:00;;;;;;;2.58;1.60;;;;;;;44.00;nan;100542.41;5072154;28;20982;-85
2022/09/06 10:56:41;;;;;;;3.30;1.50;;;;;;;44.13;nan;100543.78;5081734;28;20394;-85
2022/09/06 10:59:26;;;;;;;2.70;1.55;;;;;;;43.83;nan;100541.00;5077368;28;20486;-85
2022/09/06 11:01:58;;;;;;;1.80;1.10;;;;;;;44.44;nan;100525.03;5064634;28;20419;-86
2022/09/06 11:04:44;;;;;;;2.05;1.10;;;;;;;45.08;nan;100520.03;5081274;28;20414;-86
2022/09/06 11:07:20;;;;;;;1.60;1.10;;;;;;;45.47;nan;100519.50;5082007;28;20429;-86
2022/09/06 11:10:01;;;;;;;2.50;1.20;;;;;;;45.89;nan;100523.72;5075366;28;20403;-87
2022/09/06 11:12:39;;;;;;;1.85;1.20;;;;;;;46.09;nan;100521.41;5060774;28;20398;-86
2022/09/06 11:15:07;;;;;;;1.40;1.00;;;;;;;46.14;nan;100515.44;5076885;28;20929;-86
2022/09/06 11:17:37;;;;;;;1.55;1.02;;;;;;;46.09;nan;100515.81;5061107;28;20412;-85
2022/09/06 11:20:10;;;;;;;2.28;1.38;;;;;;;45.50;nan;100518.72;5082041;28;20499;-83
2022/09/06 11:22:54;;;;;;;3.25;1.50;;;;;;;44.89;nan;100509.13;5083814;28;20720;-85
2022/09/06 11:25:38;;;;;;;;;;;;;;;45.29;nan;100508.25;5072780;28;20046;-87
2022/09/06 11:28:07;;;;;;;;;;;;;;;46.26;nan;100510.66;5073506;28;20003;-86
2022/09/06 11:30:33;;;;;;;;;;;;;;;46.57;nan;100517.53;5065991;28;19917;-86
2022/09/06 11:33:15;;;;;;;;;;;;;;;46.64;nan;100514.72;5068901;28;19935;-87
2022/09/06 11:35:41;;;;;;;;;;;;;;;46.78;nan;100511.97;5077525;28;20518;-87
2022/09/06 11:38:09;;;;;;;;;;;;;;;46.77;nan;100507.56;5069341;28;20006;-87
2022/09/06 11:40:35;;;;;;;;;;;;;;;46.57;nan;100509.94;5073733;28;20301;-88
2022/09/06 11:43:01;;;;;;;;;;;;;;;46.16;nan;100507.44;5084852;28;20367;-85
2022/09/06 11:45:44;;;;;;;;;;;;;;;46.12;nan;100503.84;5084509;28;20006;-86
2022/09/06 11:48:33;;;;;;;;;;;;;;;45.77;nan;100507.31;5079529;28;20387;-86
2022/09/06 11:51:09;;;;;;;;;;;;;;;44.53;nan;100492.06;5085701;28;19920;-86
2022/09/06 11:53:54;;;;;;;;;;;;;;;43.45;nan;100498.28;5080556;28;19939;-86
2022/09/06 11:56:42;;;;;;;;;;;;;;;42.54;nan;100491.66;5084773;28;19916;-85
2022/09/06 11:59:23;;;;;;;3.38;1.60;;;;;;;41.38;nan;100485.72;5070699;28;19919;-86